Time,TemperatureF,DewpointF,PressureIn,WindDirection,WindDirectionDegrees,WindSpeedMPH,WindSpeedGustMPH,Humidity,HourlyPrecipIn,Conditions,Clouds,dailyrainin,SolarRadiationWatts/m^2,SoftwareType,DateUTC
2013-10-11 00:02:00,53.0,47.0,-100.00,SSE,149,0.0,2.0,81,0.00,,,0.00,0.000000,,2013-10-11 07:02:00,
2013-10-11 00:42:00,51.0,45.0,-100.00,WSW,245,2.0,5.0,81,0.00,,,0.00,0.000000,,2013-10-11 07:42:00,
2013-10-11 00:52:00,51.0,45.0,-100.00,WSW,245,2.0,5.0,81,0.00,,,0.00,0.000000,,2013-10-11 07:52:00,
2013-10-11 01:02:00,51.0,45.0,-100.00,WSW,245,2.0,5.0,81,0.00,,,0.00,0.000000,,2013-10-11 08:02:00,
2013-10-11 01:42:00,50.0,43.0,-100.00,SSW,201,1.0,5.0,78,0.00,,,0.00,0.000000,,2013-10-11 08:42:00,
2013-10-11 01:52:00,50.0,43.0,-100.00,SSW,201,1.0,5.0,78,0.00,,,0.00,0.000000,,2013-10-11 08:52:00,
2013-10-11 02:01:00,50.0,43.0,-100.00,SSW,201,1.0,5.0,78,0.00,,,0.00,0.000000,,2013-10-11 09:01:00,
2013-10-11 02:43:00,49.0,41.0,-100.00,SSE,164,3.0,5.0,74,0.00,,,0.00,0.000000,,2013-10-11 09:43:00,
2013-10-11 02:54:00,49.0,41.0,-100.00,SSE,164,3.0,5.0,74,0.00,,,0.00,0.000000,,2013-10-11 09:54:00,
2013-10-11 03:03:00,49.0,41.0,-100.00,SSE,164,3.0,5.0,74,0.00,,,0.00,0.000000,,2013-10-11 10:03:00,
2013-10-11 03:42:00,48.0,41.0,-100.00,South,182,2.0,5.0,76,0.00,,,0.00,0.000000,,2013-10-11 10:42:00,
2013-10-11 03:53:00,48.0,41.0,-100.00,South,182,2.0,5.0,76,0.00,,,0.00,0.000000,,2013-10-11 10:53:00,
2013-10-11 04:02:00,48.0,41.0,-100.00,South,182,2.0,5.0,76,0.00,,,0.00,0.000000,,2013-10-11 11:02:00,
2013-10-11 04:42:00,47.0,40.0,-100.00,South,171,1.0,4.0,77,0.00,,,-99.99,0.000000,,2013-10-11 11:42:00,
2013-10-11 04:52:00,47.0,40.0,-100.00,South,171,1.0,4.0,77,0.00,,,-99.99,0.000000,,2013-10-11 11:52:00,
2013-10-11 05:02:00,47.0,40.0,-100.00,South,171,1.0,4.0,77,0.00,,,-99.99,0.000000,,2013-10-11 12:02:00,
2013-10-11 05:42:00,46.0,39.0,-100.00,South,181,2.0,4.0,76,0.00,,,-99.99,0.000000,,2013-10-11 12:42:00,
2013-10-11 05:52:00,46.0,39.0,-100.00,South,181,2.0,4.0,76,0.00,,,-99.99,0.000000,,2013-10-11 12:52:00,
2013-10-11 06:01:00,46.0,39.0,-100.00,South,181,2.0,4.0,76,0.00,,,-99.99,0.000000,,2013-10-11 13:01:00,
2013-10-11 06:43:00,46.0,39.0,-100.00,South,181,3.0,4.0,77,0.00,,,-99.99,0.000000,,2013-10-11 13:43:00,
2013-10-11 06:53:00,46.0,39.0,-100.00,South,181,3.0,4.0,77,0.00,,,-99.99,0.000000,,2013-10-11 13:53:00,
2013-10-11 07:02:00,46.0,39.0,-100.00,South,181,3.0,4.0,77,0.00,,,-99.99,0.000000,,2013-10-11 14:02:00,
2013-10-11 07:42:00,46.0,39.0,-100.00,NNE,28,1.0,4.0,77,0.00,,,0.00,0.000000,,2013-10-11 14:42:00,
2013-10-11 07:52:00,46.0,39.0,-100.00,NNE,28,1.0,4.0,77,0.00,,,0.00,0.000000,,2013-10-11 14:52:00,
2013-10-11 08:02:00,46.0,39.0,-100.00,NNE,28,1.0,4.0,77,0.00,,,0.00,0.000000,,2013-10-11 15:02:00,
2013-10-11 08:44:00,46.0,40.0,-100.00,SSE,147,1.0,4.0,79,0.00,,,0.00,18.000000,,2013-10-11 15:44:00,
2013-10-11 08:54:00,46.0,40.0,-100.00,SSE,147,1.0,4.0,79,0.00,,,0.00,18.000000,,2013-10-11 15:54:00,
2013-10-11 09:03:00,46.0,40.0,-100.00,SSE,147,1.0,4.0,79,0.00,,,0.00,18.000000,,2013-10-11 16:03:00,
2013-10-11 09:43:00,53.0,42.0,-100.00,East,97,1.0,4.0,67,0.00,,,0.00,202.000000,,2013-10-11 16:43:00,
2013-10-11 09:53:00,53.0,42.0,-100.00,East,97,1.0,4.0,67,0.00,,,0.00,202.000000,,2013-10-11 16:53:00,
2013-10-11 10:03:00,53.0,42.0,-100.00,East,97,1.0,4.0,67,0.00,,,0.00,202.000000,,2013-10-11 17:03:00,
2013-10-11 10:43:00,59.0,47.0,-100.00,North,359,3.0,5.0,64,0.00,,,0.00,431.000000,,2013-10-11 17:43:00,
2013-10-11 10:53:00,59.0,47.0,-100.00,North,359,3.0,5.0,64,0.00,,,0.00,431.000000,,2013-10-11 17:53:00,
2013-10-11 11:02:00,59.0,47.0,-100.00,North,359,3.0,5.0,64,0.00,,,0.00,431.000000,,2013-10-11 18:02:00,
2013-10-11 11:43:00,62.0,48.0,-100.00,North,352,3.0,7.0,61,0.00,,,0.00,585.000000,,2013-10-11 18:43:00,
2013-10-11 13:43:00,65.0,49.0,-100.00,SSW,201,6.0,10.0,56,-99.99,,,0.00,733.000000,,2013-10-11 20:43:00,
2013-10-11 15:43:00,64.0,49.0,-100.00,NNW,337,3.0,9.0,59,0.00,,,0.00,628.000000,,2013-10-11 22:43:00,
2013-10-11 15:54:00,64.0,49.0,-100.00,NNW,337,3.0,9.0,59,0.00,,,0.00,628.000000,,2013-10-11 22:54:00,
2013-10-11 16:03:00,64.0,49.0,-100.00,NNW,337,3.0,9.0,59,0.00,,,0.00,628.000000,,2013-10-11 23:03:00,
2013-10-11 17:42:00,58.0,49.0,-100.00,WSW,250,2.0,5.0,71,-99.99,,,0.00,106.000000,,2013-10-12 00:42:00,
2013-10-11 17:53:00,58.0,49.0,-100.00,WSW,250,2.0,5.0,71,-99.99,,,0.00,106.000000,,2013-10-12 00:53:00,
2013-10-11 18:02:00,58.0,49.0,-100.00,WSW,250,2.0,5.0,71,-99.99,,,0.00,106.000000,,2013-10-12 01:02:00,
2013-10-11 18:42:00,55.0,49.0,-100.00,SSW,203,1.0,3.0,79,0.00,,,0.00,21.000000,,2013-10-12 01:42:00,
2013-10-11 18:52:00,55.0,49.0,-100.00,SSW,203,1.0,3.0,79,0.00,,,0.00,21.000000,,2013-10-12 01:52:00,
2013-10-11 19:02:00,55.0,49.0,-100.00,SSW,203,1.0,3.0,79,0.00,,,0.00,21.000000,,2013-10-12 02:02:00,
2013-10-11 19:42:00,52.0,48.0,-100.00,SW,214,0.0,2.0,86,0.00,,,0.00,5.000000,,2013-10-12 02:42:00,
2013-10-11 19:52:00,52.0,48.0,-100.00,SW,214,0.0,2.0,86,0.00,,,0.00,5.000000,,2013-10-12 02:52:00,
2013-10-11 20:02:00,52.0,48.0,-100.00,SW,214,0.0,2.0,86,0.00,,,0.00,5.000000,,2013-10-12 03:02:00,
2013-10-11 20:04:00,50.0,47.0,-100.00,ESE,117,1.0,4.0,90,0.00,,,0.00,0.000000,,2013-10-12 03:04:00,
2013-10-11 20:44:00,50.0,47.0,-100.00,ESE,117,1.0,4.0,90,0.00,,,0.00,0.000000,,2013-10-12 03:44:00,
2013-10-11 20:54:00,50.0,47.0,-100.00,ESE,117,1.0,4.0,90,0.00,,,0.00,0.000000,,2013-10-12 03:54:00,
2013-10-11 21:44:00,48.0,46.0,-100.00,WSW,238,0.0,3.0,93,0.00,,,0.00,0.000000,,2013-10-12 04:44:00,
2013-10-11 21:54:00,48.0,46.0,-100.00,WSW,238,0.0,3.0,93,0.00,,,0.00,0.000000,,2013-10-12 04:54:00,
2013-10-11 22:03:00,48.0,46.0,-100.00,WSW,238,0.0,3.0,93,0.00,,,0.00,0.000000,,2013-10-12 05:03:00,
2013-10-11 22:43:00,46.0,45.0,-100.00,SW,224,1.0,2.0,95,0.00,,,0.00,0.000000,,2013-10-12 05:43:00,
2013-10-11 22:52:00,46.0,45.0,-100.00,SW,224,1.0,2.0,95,0.00,,,0.00,0.000000,,2013-10-12 05:52:00,
2013-10-11 23:02:00,46.0,45.0,-100.00,SW,224,1.0,2.0,95,0.00,,,0.00,0.000000,,2013-10-12 06:02:00,